Hua Heng 167 — BIAK3 — position and weather

sailwx.info

Track history (hours):
 
Tides and Currents Weather Stations Pressure Air Temp Water Temp Dewpoint Dewpoint Depression Visibility Wind Speed Wind Dir Waves Ship Positions

Hua Heng 167

Last reported at 2016-May-09 20:22 UTC. Time now 2016-Jul-23 11:08 UTC.
Position N 22°45' E 119°55'.
Warning: this ship's position is months out of date.

Length 189 m; draft 8.7 m.

Type: Cargo ship. MMSI: 413376470.

Date/timePositionNaut miles runAvg speedWind from/ knotsBaromVisibWave heightAir tempDewpointWater temp
2016-May-09 20:22N 22°45' E 119°55'11210.9
2016-May-09 10:08N 24°31' E 119°17'813.4
2016-May-09 09:33N 24°38' E 119°13'1313.5
2016-May-09 08:33N 24°50' E 119°07'1312.6
2016-May-09 07:33N 25°02' E 119°03'1312.7
2016-May-09 06:33N 25°14' E 118°58'0 0.3
2016-May-09 05:33N 25°14' E 118°58'0 0.0
2016-May-09 04:21N 25°14' E 118°58'0 0.0
2016-May-09 03:21N 25°14' E 118°58'0 0.0
2016-May-09 02:15N 25°14' E 118°58'0 0.0
2016-May-09 01:33N 25°14' E 118°58'0 0.0
2016-May-08 23:33N 25°14' E 118°58'0 0.0
2016-May-08 22:27N 25°14' E 118°58'0 0.0
2016-May-08 19:33N 25°14' E 118°58'  
2016-May-06 06:27N 25°14' E 118°58'0 0.0
2016-May-06 05:33N 25°14' E 118°58'0 0.1
2016-May-06 03:33N 25°14' E 118°58'5 4.5
2016-May-06 02:33N 25°10' E 119°00'1110.0
2016-May-06 01:30N 24°60' E 119°04'4 1.2
2016-May-05 22:30N 24°58' E 119°07'0 0.0
2016-May-05 18:14N 24°58' E 119°07'4 5.0
2016-May-05 17:26N 24°54' E 119°06'7 8.3
2016-May-05 16:33N 24°49' E 119°01'5012.1
2016-May-05 12:24N 24°16' E 118°20'1011.7
2016-May-05 11:32N 24°21' E 118°10'10 9.8
2016-May-05 10:33N 24°28' E 118°03'4 4.1
2016-May-05 09:32N 24°32' E 118°05'0 0.0
2016-May-05 08:29N 24°32' E 118°05'0 0.0
2016-May-05 07:26N 24°32' E 118°05'0 0.0
2016-May-05 06:29N 24°32' E 118°05'0 0.0
2016-May-05 05:26N 24°32' E 118°05'0 0.0
2016-May-05 04:30N 24°32' E 118°05'0 0.0
2016-May-05 03:32N 24°32' E 118°05'0 0.0
2016-May-05 02:32N 24°32' E 118°05'0 0.0
2016-May-05 01:26N 24°32' E 118°05'0 0.0
2016-May-05 00:32N 24°32' E 118°05'0 0.0
2016-May-04 23:32N 24°32' E 118°05'0 0.0
2016-May-04 22:32N 24°32' E 118°05'0 0.0
2016-May-04 21:32N 24°32' E 118°05'0 0.0
2016-May-04 20:29N 24°32' E 118°05'0 0.0
2016-May-04 19:20N 24°32' E 118°05'0 0.0
2016-May-04 18:32N 24°32' E 118°05'0 0.0
2016-May-04 16:32N 24°32' E 118°05'0 0.0
2016-May-04 15:17N 24°32' E 118°05'1 1.5
2016-May-04 14:34N 24°31' E 118°04'7 7.1
2016-May-04 13:33N 24°24' E 118°07'8 7.4
2016-May-04 12:31N 24°18' E 118°13'16 5.3
2016-May-04 09:33N 24°17' E 118°30'1 1.1
2016-May-04 08:18N 24°15' E 118°29'2 2.0
2016-May-04 07:32N 24°16' E 118°30'1010.6
2016-May-04 06:33N 24°22' E 118°40'1311.4
2016-May-04 05:26N 24°30' E 118°51'1112.0
2016-May-04 04:33N 24°36' E 119°00'1311.8
2016-May-04 03:29N 24°44' E 119°11'1111.8
2016-May-04 02:32N 24°51' E 119°21'  
2016-Apr-30 20:13N 37°46' E 122°36'18910.7
2016-Apr-30 02:33N 39°55' E 119°40'0 0.1
2016-Apr-30 01:25N 39°55' E 119°40'0 0.0
2016-Apr-30 00:19N 39°55' E 119°40'0 0.0
2016-Apr-29 23:19N 39°55' E 119°40'0 0.0
2016-Apr-29 22:25N 39°55' E 119°40'0 0.0
2016-Apr-29 21:13N 39°55' E 119°40'0 0.0
2016-Apr-29 20:25N 39°55' E 119°40'  
Track history (hours):
 
Tides and Currents Weather Stations Pressure Air Temp Water Temp Dewpoint Dewpoint Depression Visibility Wind Speed Wind Dir Waves Ship Positions

Hua Heng 167

Last reported at 2016-May-09 20:22 UTC. Time now 2016-Jul-23 11:08 UTC.
Position N 22°45' E 119°55'.
Warning: this ship's position is months out of date.

Length 189 m; draft 8.7 m.

Type: Cargo ship. MMSI: 413376470.

Date/timePositionNaut miles runAvg speedWind from/ knotsBaromVisibWave heightAir tempDewpointWater temp
2016-May-09 20:22N 22°45' E 119°55'11210.9
2016-May-09 10:08N 24°31' E 119°17'813.4
2016-May-09 09:33N 24°38' E 119°13'1313.5
2016-May-09 08:33N 24°50' E 119°07'1312.6
2016-May-09 07:33N 25°02' E 119°03'1312.7
2016-May-09 06:33N 25°14' E 118°58'0 0.3
2016-May-09 05:33N 25°14' E 118°58'0 0.0
2016-May-09 04:21N 25°14' E 118°58'0 0.0
2016-May-09 03:21N 25°14' E 118°58'0 0.0
2016-May-09 02:15N 25°14' E 118°58'0 0.0
2016-May-09 01:33N 25°14' E 118°58'0 0.0
2016-May-08 23:33N 25°14' E 118°58'0 0.0
2016-May-08 22:27N 25°14' E 118°58'0 0.0
2016-May-08 19:33N 25°14' E 118°58'  
2016-May-06 06:27N 25°14' E 118°58'0 0.0
2016-May-06 05:33N 25°14' E 118°58'0 0.1
2016-May-06 03:33N 25°14' E 118°58'5 4.5
2016-May-06 02:33N 25°10' E 119°00'1110.0
2016-May-06 01:30N 24°60' E 119°04'4 1.2
2016-May-05 22:30N 24°58' E 119°07'0 0.0
2016-May-05 18:14N 24°58' E 119°07'4 5.0
2016-May-05 17:26N 24°54' E 119°06'7 8.3
2016-May-05 16:33N 24°49' E 119°01'5012.1
2016-May-05 12:24N 24°16' E 118°20'1011.7
2016-May-05 11:32N 24°21' E 118°10'10 9.8
2016-May-05 10:33N 24°28' E 118°03'4 4.1
2016-May-05 09:32N 24°32' E 118°05'0 0.0
2016-May-05 08:29N 24°32' E 118°05'0 0.0
2016-May-05 07:26N 24°32' E 118°05'0 0.0
2016-May-05 06:29N 24°32' E 118°05'0 0.0
2016-May-05 05:26N 24°32' E 118°05'0 0.0
2016-May-05 04:30N 24°32' E 118°05'0 0.0
2016-May-05 03:32N 24°32' E 118°05'0 0.0
2016-May-05 02:32N 24°32' E 118°05'0 0.0
2016-May-05 01:26N 24°32' E 118°05'0 0.0
2016-May-05 00:32N 24°32' E 118°05'0 0.0
2016-May-04 23:32N 24°32' E 118°05'0 0.0
2016-May-04 22:32N 24°32' E 118°05'0 0.0
2016-May-04 21:32N 24°32' E 118°05'0 0.0
2016-May-04 20:29N 24°32' E 118°05'0 0.0
2016-May-04 19:20N 24°32' E 118°05'0 0.0
2016-May-04 18:32N 24°32' E 118°05'0 0.0
2016-May-04 16:32N 24°32' E 118°05'0 0.0
2016-May-04 15:17N 24°32' E 118°05'1 1.5
2016-May-04 14:34N 24°31' E 118°04'7 7.1
2016-May-04 13:33N 24°24' E 118°07'8 7.4
2016-May-04 12:31N 24°18' E 118°13'16 5.3
2016-May-04 09:33N 24°17' E 118°30'1 1.1
2016-May-04 08:18N 24°15' E 118°29'2 2.0
2016-May-04 07:32N 24°16' E 118°30'1010.6
2016-May-04 06:33N 24°22' E 118°40'1311.4
2016-May-04 05:26N 24°30' E 118°51'1112.0
2016-May-04 04:33N 24°36' E 119°00'1311.8
2016-May-04 03:29N 24°44' E 119°11'1111.8
2016-May-04 02:32N 24°51' E 119°21'  
2016-Apr-30 20:13N 37°46' E 122°36'18910.7
2016-Apr-30 02:33N 39°55' E 119°40'0 0.1
2016-Apr-30 01:25N 39°55' E 119°40'0 0.0
2016-Apr-30 00:19N 39°55' E 119°40'0 0.0
2016-Apr-29 23:19N 39°55' E 119°40'0 0.0
2016-Apr-29 22:25N 39°55' E 119°40'0 0.0
2016-Apr-29 21:13N 39°55' E 119°40'0 0.0
2016-Apr-29 20:25N 39°55' E 119°40'  

Dump ship's entire track history